createdAt,value
2018-11-20T00:25:03.556Z,34.8
2018-11-20T00:25:52.711Z,34.8
2018-11-20T00:26:43.866Z,34.7
2018-11-20T00:27:33.951Z,34.7
2018-11-20T00:28:25.359Z,34.6
2018-11-20T00:29:13.081Z,34.6
2018-11-20T00:30:04.929Z,34.6
2018-11-20T00:30:53.953Z,34.6
2018-11-20T00:31:44.057Z,34.6
2018-11-20T00:32:34.156Z,34.5
2018-11-20T00:33:24.113Z,34.5
2018-11-20T00:34:14.006Z,34.5
2018-11-20T00:35:04.603Z,34.4
2018-11-20T00:35:54.606Z,34.4
2018-11-20T00:36:44.845Z,34.4
2018-11-20T00:37:33.845Z,34.4
2018-11-20T00:38:25.367Z,34.3
2018-11-20T00:39:14.312Z,34.3
2018-11-20T00:40:06.136Z,34.3
2018-11-20T00:40:55.217Z,34.3
2018-11-20T00:41:45.495Z,34.3
2018-11-20T00:42:38.052Z,34.3
2018-11-20T00:43:25.435Z,34.2
2018-11-20T00:44:15.593Z,34.2
2018-11-20T00:45:05.539Z,34.1
2018-11-20T00:45:55.968Z,34.1
2018-11-20T00:46:45.796Z,34.1
2018-11-20T00:47:35.259Z,33.5
2018-11-20T00:48:26.590Z,32.8
2018-11-20T00:49:16.273Z,30.9
2018-11-20T00:50:06.119Z,29.9
2018-11-20T00:50:57.406Z,28.6
2018-11-20T00:51:45.803Z,27.3
2018-11-20T00:52:35.298Z,25.9
2018-11-20T00:53:25.049Z,24.4
2018-11-20T00:54:15.740Z,23
2018-11-20T00:55:06.742Z,23.1
2018-11-20T00:55:56.529Z,23.4
2018-11-20T00:56:47.392Z,25.4
2018-11-20T00:57:36.859Z,27.4
2018-11-20T00:58:25.174Z,29.1
2018-11-20T00:59:16.986Z,30.4
2018-11-20T01:00:05.559Z,31.4
2018-11-20T01:00:57.059Z,32.1
2018-11-20T01:01:46.537Z,32.6
2018-11-20T01:02:37.321Z,33.1
2018-11-20T01:03:28.129Z,33.5
2018-11-20T01:04:17.589Z,33.9
2018-11-20T01:05:08.088Z,34.2
2018-11-20T01:05:56.900Z,34.4
2018-11-20T01:06:46.656Z,34.7
2018-11-20T01:07:37.810Z,34.9
2018-11-20T01:08:27.204Z,35.1
2018-11-20T01:09:17.718Z,35.3
2018-11-20T01:10:06.841Z,35.4
2018-11-20T01:10:57.805Z,35.6
2018-11-20T01:11:48.486Z,35.8
2018-11-20T01:12:38.082Z,35.9
2018-11-20T01:13:26.785Z,35.8
2018-11-20T01:14:17.672Z,34.7
2018-11-20T01:15:06.110Z,33.9
2018-11-20T01:15:56.912Z,33.4
2018-11-20T01:16:47.764Z,32.9
2018-11-20T01:17:37.613Z,32.5
2018-11-20T01:18:26.897Z,32.2
2018-11-20T01:19:18.565Z,31.9
2018-11-20T01:20:07.263Z,31.8
2018-11-20T01:20:57.227Z,31.6
2018-11-20T01:21:49.075Z,31.4
2018-11-20T01:22:38.877Z,31.3
2018-11-20T01:23:28.652Z,31.1
2018-11-20T01:24:18.332Z,31
2018-11-20T01:25:07.367Z,30.9
2018-11-20T01:25:58.889Z,30.8
2018-11-20T01:26:47.229Z,30.7
2018-11-20T01:27:37.732Z,30.6
2018-11-20T01:28:29.074Z,30.4
2018-11-20T01:29:18.030Z,30.3
2018-11-20T01:30:08.271Z,29.7
2018-11-20T01:30:59.768Z,30.4
2018-11-20T01:31:49.803Z,31.6
2018-11-20T01:32:39.364Z,32.1
2018-11-20T01:33:29.039Z,32.6
2018-11-20T01:34:18.285Z,32.9
2018-11-20T01:35:08.364Z,33.3
2018-11-20T01:35:59.536Z,33.5
2018-11-20T01:36:48.803Z,33.8
2018-11-20T01:37:39.107Z,34.1
2018-11-20T01:38:29.406Z,34.3
2018-11-20T01:39:18.876Z,34.5
2018-11-20T01:40:08.538Z,34.7
2018-11-20T01:40:58.744Z,34.9
2018-11-20T01:41:48.672Z,35
2018-11-20T01:42:38.253Z,35.1
2018-11-20T01:43:28.391Z,35.3
2018-11-20T01:44:20.039Z,35.4
2018-11-20T01:45:09.467Z,35.5
2018-11-20T01:45:59.973Z,35.6
2018-11-20T01:46:48.939Z,35.7
2018-11-20T01:47:40.036Z,35.8
2018-11-20T01:48:30.698Z,35.8
2018-11-20T01:49:18.909Z,34.8
2018-11-20T01:50:09.324Z,34
2018-11-20T01:50:59.838Z,33.4
2018-11-20T01:51:50.721Z,32.9
2018-11-20T01:52:39.925Z,32.6
2018-11-20T01:53:29.778Z,32.3
2018-11-20T01:54:20.399Z,32
2018-11-20T01:55:10.411Z,31.8
2018-11-20T01:56:00.119Z,31.6
2018-11-20T01:56:50.798Z,31.4
2018-11-20T01:57:39.669Z,31.3
2018-11-20T01:58:30.727Z,31.1
2018-11-20T01:59:20.009Z,31
2018-11-20T02:00:08.987Z,30.9
2018-11-20T02:01:00.625Z,30.8
2018-11-20T02:01:51.220Z,30.6
2018-11-20T02:02:40.200Z,30.5
2018-11-20T02:03:30.720Z,30.4
2018-11-20T02:04:21.749Z,30.3
2018-11-20T02:05:10.282Z,30.1
2018-11-20T02:06:01.657Z,29.7
2018-11-20T02:06:51.439Z,30.9
2018-11-20T02:07:41.277Z,31.7
2018-11-20T02:08:30.512Z,32.2
2018-11-20T02:09:21.140Z,32.5
2018-11-20T02:10:10.710Z,32.9
2018-11-20T02:11:00.954Z,33.2
2018-11-20T02:11:50.935Z,33.4
2018-11-20T02:12:41.865Z,33.7
2018-11-20T02:13:30.124Z,33.9
2018-11-20T02:14:21.310Z,34.1
2018-11-20T02:15:10.944Z,34.3
2018-11-20T02:16:02.375Z,34.5
2018-11-20T02:16:50.827Z,34.6
2018-11-20T02:17:41.839Z,34.8
2018-11-20T02:18:31.424Z,34.9
2018-11-20T02:19:21.836Z,35.1
2018-11-20T02:20:11.127Z,35.1
2018-11-20T02:21:02.936Z,35.3
2018-11-20T02:21:52.821Z,35.3
2018-11-20T02:22:42.862Z,35.4
2018-11-20T02:23:33.414Z,35.5
2018-11-20T02:24:21.703Z,35.6
2018-11-20T02:25:12.281Z,35.6
2018-11-20T02:26:02.950Z,35.7
2018-11-20T02:26:52.554Z,35.8
2018-11-20T02:27:42.651Z,35.5
2018-11-20T02:28:33.035Z,34.5
2018-11-20T02:29:22.859Z,33.8
2018-11-20T02:30:13.258Z,33.1
2018-11-20T02:31:01.308Z,32.7
2018-11-20T02:31:53.093Z,32.4
2018-11-20T02:32:42.046Z,32.1
2018-11-20T02:33:33.698Z,31.9
2018-11-20T02:34:21.768Z,31.6
2018-11-20T02:35:13.673Z,31.4
2018-11-20T02:36:02.648Z,31.3
2018-11-20T02:36:52.866Z,31.1
2018-11-20T02:37:44.041Z,31.1
2018-11-20T02:38:32.173Z,30.9
2018-11-20T02:39:23.008Z,30.8
2018-11-20T02:40:14.374Z,30.6
2018-11-20T02:41:03.473Z,30.5
2018-11-20T02:41:54.355Z,30.4
2018-11-20T02:42:43.477Z,30.3
2018-11-20T02:43:33.699Z,30.1
2018-11-20T02:44:23.217Z,29.6
2018-11-20T02:45:13.572Z,30.5
2018-11-20T02:46:03.969Z,31.4
2018-11-20T02:46:53.022Z,32
2018-11-20T02:47:44.297Z,32.3
2018-11-20T02:48:36.535Z,32.7
2018-11-20T02:49:21.953Z,32.9
2018-11-20T02:50:14.555Z,33.1
2018-11-20T02:51:03.399Z,33.4
2018-11-20T02:51:54.632Z,33.6
2018-11-20T02:52:44.669Z,33.8
2018-11-20T02:53:34.549Z,33.9
2018-11-20T02:54:23.402Z,34.1
2018-11-20T02:55:13.027Z,34.3
2018-11-20T02:56:04.967Z,34.3
2018-11-20T02:56:54.662Z,34.4
2018-11-20T02:57:44.279Z,34.5
2018-11-20T02:58:34.009Z,34.6
2018-11-20T02:59:24.649Z,34.6
2018-11-20T03:00:15.432Z,34.6
2018-11-20T03:01:04.735Z,34.7
2018-11-20T03:01:54.836Z,34.7
2018-11-20T03:02:44.293Z,34.8
2018-11-20T03:03:35.425Z,34.8
2018-11-20T03:04:24.976Z,34.8
2018-11-20T03:05:14.497Z,34.8
2018-11-20T03:06:04.834Z,34.8
2018-11-20T03:06:54.519Z,34.8
2018-11-20T03:07:45.442Z,34.8
2018-11-20T03:08:35.695Z,34.8
2018-11-20T03:09:25.836Z,34.7
2018-11-20T03:10:15.726Z,34.7
2018-11-20T03:11:05.051Z,34.7
2018-11-20T03:11:54.603Z,34.7
2018-11-20T03:12:44.844Z,34.7
2018-11-20T03:13:36.158Z,34.7
2018-11-20T03:14:25.409Z,34.6
2018-11-20T03:15:15.438Z,34.6
2018-11-20T03:16:06.033Z,34.6
2018-11-20T03:16:55.368Z,34.6
2018-11-20T03:17:46.508Z,34.6
2018-11-20T03:18:35.925Z,34.5
2018-11-20T03:19:24.870Z,34.6
2018-11-20T03:20:16.215Z,34.5
2018-11-20T03:21:06.499Z,34.5
2018-11-20T03:21:56.625Z,34.5
2018-11-20T03:22:46.731Z,34.4
2018-11-20T03:23:36.290Z,34.4
2018-11-20T03:24:26.365Z,34.4
2018-11-20T03:25:16.395Z,34.4
2018-11-20T03:26:07.060Z,34.4
2018-11-20T03:26:57.498Z,34.4
2018-11-20T03:27:46.517Z,34.3
2018-11-20T03:28:37.055Z,33.9
2018-11-20T03:29:27.458Z,33.1
2018-11-20T03:30:16.624Z,31.3
2018-11-20T03:31:06.862Z,30.1
2018-11-20T03:31:56.826Z,28.9
2018-11-20T03:32:47.600Z,27.6
2018-11-20T03:33:36.884Z,26.3
2018-11-20T03:34:27.914Z,24.8
2018-11-20T03:35:17.372Z,23.3
2018-11-20T03:36:08.012Z,22.8
2018-11-20T03:36:57.522Z,23.2
2018-11-20T03:37:47.637Z,24.6
2018-11-20T03:38:37.215Z,26.7
2018-11-20T03:39:26.811Z,28.6
2018-11-20T03:40:18.172Z,30.1
2018-11-20T03:41:07.648Z,31.1
2018-11-20T03:41:57.662Z,31.9
2018-11-20T03:42:46.792Z,32.5
2018-11-20T03:43:36.954Z,32.9
2018-11-20T03:44:28.269Z,33.4
2018-11-20T03:45:17.701Z,33.8
2018-11-20T03:46:07.760Z,34.1
2018-11-20T03:46:57.859Z,34.4
2018-11-20T03:47:48.851Z,34.7
2018-11-20T03:48:37.144Z,34.9
2018-11-20T03:49:28.279Z,35.2
2018-11-20T03:50:17.883Z,35.3
2018-11-20T03:51:08.346Z,35.5
2018-11-20T03:51:58.511Z,35.7
2018-11-20T03:52:47.920Z,35.8
2018-11-20T03:53:37.834Z,35.9
2018-11-20T03:54:27.158Z,35.8
2018-11-20T03:55:18.489Z,34.8
2018-11-20T03:56:07.726Z,33.9
2018-11-20T03:56:58.611Z,33.4
2018-11-20T03:57:47.251Z,32.9
2018-11-20T03:58:37.999Z,32.5
2018-11-20T03:59:27.011Z,32.2
2018-11-20T04:00:18.072Z,31.9
2018-11-20T04:01:08.105Z,31.8
2018-11-20T04:01:58.605Z,31.6
2018-11-20T04:02:49.308Z,31.4
2018-11-20T04:03:39.260Z,31.2
2018-11-20T04:04:29.008Z,31.1
2018-11-20T04:05:20.423Z,30.8
2018-11-20T04:06:08.640Z,31.9
2018-11-20T04:06:58.715Z,32.8
2018-11-20T04:07:49.515Z,33.1
2018-11-20T04:08:40.152Z,33.4
2018-11-20T04:09:30.032Z,33.8
2018-11-20T04:10:20.245Z,34
2018-11-20T04:11:08.367Z,34.3
2018-11-20T04:11:59.159Z,34.5
2018-11-20T04:12:50.745Z,34.8
2018-11-20T04:13:39.319Z,35
2018-11-20T04:14:30.677Z,35.2
2018-11-20T04:15:17.624Z,35.3
2018-11-20T04:16:10.322Z,35.5
2018-11-20T04:17:00.164Z,35.6
2018-11-20T04:17:51.987Z,35.8
2018-11-20T04:18:40.342Z,35.9
2018-11-20T04:19:30.512Z,35.4
2018-11-20T04:20:19.955Z,34.4
2018-11-20T04:21:10.291Z,33.8
2018-11-20T04:22:00.637Z,33.1
2018-11-20T04:22:50.921Z,32.7
2018-11-20T04:23:40.756Z,32.3
2018-11-20T04:24:30.830Z,32.1
2018-11-20T04:25:36.863Z,31.8
2018-11-20T04:26:11.139Z,31.6
2018-11-20T04:27:01.754Z,31.4
2018-11-20T04:27:51.405Z,31.2
2018-11-20T04:28:40.809Z,31.1
2018-11-20T04:29:30.338Z,31
2018-11-20T04:30:22.564Z,30.9
2018-11-20T04:31:11.722Z,30.8
2018-11-20T04:32:02.019Z,30.7
2018-11-20T04:32:51.592Z,30.6
2018-11-20T04:33:42.538Z,30.4
2018-11-20T04:34:31.528Z,30.3
2018-11-20T04:35:21.723Z,30
2018-11-20T04:36:12.361Z,29.9
2018-11-20T09:08:46.015Z,36.1
2018-11-20T09:09:36.437Z,36
2018-11-20T09:10:25.915Z,34.9
2018-11-20T09:11:14.367Z,34.1
2018-11-20T09:12:05.590Z,33.5
2018-11-20T09:12:55.541Z,33.1
2018-11-20T09:13:47.009Z,32.7
2018-11-20T09:14:35.979Z,32.4
2018-11-20T09:15:25.271Z,32.1
2018-11-20T09:16:15.876Z,31.8
2018-11-20T09:17:07.232Z,31.6
2018-11-20T09:17:56.363Z,31.4
2018-11-20T09:18:45.672Z,31.3
2018-11-20T09:19:37.361Z,31.1
2018-11-20T09:20:29.030Z,31.1
2018-11-20T09:21:16.578Z,30.9
2018-11-20T09:22:06.461Z,30.8
2018-11-20T09:22:56.831Z,30.7
2018-11-20T09:23:46.863Z,30.6
2018-11-20T09:24:35.866Z,30.5
2018-11-20T09:25:24.706Z,30.4
2018-11-20T09:26:16.808Z,30.2
2018-11-20T09:27:06.772Z,29.9
2018-11-20T09:27:57.025Z,29.8
2018-11-20T09:28:46.711Z,31.1
2018-11-20T09:29:37.173Z,31.8
2018-11-20T09:30:26.521Z,32.3
2018-11-20T09:31:16.047Z,32.8
2018-11-20T09:32:05.555Z,33.2
2018-11-20T09:32:57.770Z,33.6
2018-11-20T09:33:47.228Z,33.9
2018-11-20T09:34:39.808Z,34.3
2018-11-20T09:35:30.835Z,34.6
2018-11-20T09:36:17.645Z,34.9
2018-11-20T09:37:07.103Z,35.1
2018-11-20T09:37:57.985Z,35.3
2018-11-20T09:38:44.975Z,35.5
2018-11-20T09:39:38.364Z,35.7
2018-11-20T09:40:26.798Z,35.8
2018-11-20T09:41:17.455Z,36
2018-11-20T09:42:07.370Z,36.1
2018-11-20T09:42:58.010Z,35.4
2018-11-20T09:43:47.580Z,34.5
2018-11-20T09:44:38.592Z,33.8
2018-11-20T09:45:27.967Z,33.3
2018-11-20T09:46:18.122Z,32.8
2018-11-20T09:47:08.640Z,32.4
2018-11-20T09:47:57.458Z,32.2
2018-11-20T09:48:48.854Z,31.9
2018-11-20T09:49:38.704Z,31.7
2018-11-20T09:50:28.128Z,31.5
2018-11-20T09:51:18.425Z,31.3
2018-11-20T09:52:08.089Z,31.2
2018-11-20T09:53:00.075Z,31
2018-11-20T09:53:47.796Z,30.9
2018-11-20T09:54:39.131Z,30.8
2018-11-20T09:55:28.701Z,30.6
2018-11-20T09:56:18.232Z,30.6
2018-11-20T09:57:09.439Z,31.8
2018-11-20T09:57:58.051Z,32.5
2018-11-20T09:58:49.187Z,32.9
2018-11-20T09:59:41.153Z,33.3
2018-11-20T10:00:30.269Z,33.7
2018-11-20T10:01:19.259Z,34
2018-11-20T10:02:09.809Z,34.3
2018-11-20T10:02:59.860Z,34.6
2018-11-20T10:03:50.925Z,34.9
2018-11-20T10:04:38.562Z,35.1
2018-11-20T10:05:30.876Z,35.4
2018-11-20T10:06:19.895Z,35.6
2018-11-20T10:07:11.677Z,35.8
2018-11-20T10:07:59.393Z,35.9
2018-11-20T10:08:51.769Z,36.1
2018-11-20T10:09:40.255Z,35.7
2018-11-20T10:10:28.956Z,34.7
2018-11-20T10:11:20.053Z,33.9
2018-11-20T10:12:09.145Z,33.4
2018-11-20T10:12:59.808Z,32.9
2018-11-20T10:13:50.584Z,32.6
2018-11-20T10:14:40.900Z,32.3
2018-11-20T10:15:30.561Z,32
2018-11-20T10:16:19.285Z,31.8
2018-11-20T10:17:09.682Z,31.6
2018-11-20T10:18:00.562Z,31.4
2018-11-20T10:18:49.783Z,31.3
2018-11-20T10:19:40.729Z,31.1
2018-11-20T10:20:31.350Z,30.9
2018-11-20T10:21:20.487Z,30.8
2018-11-20T10:22:13.134Z,30.6
2018-11-20T10:23:00.300Z,30.4
2018-11-20T10:23:52.021Z,30.9
2018-11-20T10:24:40.948Z,32.1
2018-11-20T10:25:34.314Z,32.6
2018-11-20T10:26:21.636Z,33
2018-11-20T10:27:11.348Z,33.4
2018-11-20T10:28:00.742Z,33.7
2018-11-20T10:28:51.614Z,34.1
2018-11-20T10:29:40.574Z,34.4
2018-11-20T10:30:31.715Z,34.7
2018-11-20T10:31:22.064Z,34.9
2018-11-20T10:32:11.888Z,35.2
2018-11-20T10:33:02.272Z,35.4
2018-11-20T10:33:51.091Z,35.6
2018-11-20T10:34:42.067Z,35.8
2018-11-20T10:35:31.888Z,35.9
2018-11-20T10:36:23.220Z,36.1
2018-11-20T10:37:10.724Z,35.6
2018-11-20T10:38:00.999Z,34.7
2018-11-20T10:38:52.266Z,33.9
2018-11-20T10:39:42.479Z,33.4
2018-11-20T10:40:32.096Z,32.9
2018-11-20T10:41:23.456Z,32.6
2018-11-20T10:42:11.512Z,32.3
2018-11-20T10:43:01.591Z,32
2018-11-20T10:43:52.179Z,31.8
2018-11-20T10:44:42.084Z,31.6
2018-11-20T10:45:33.549Z,31.4
2018-11-20T10:46:25.114Z,31.3
2018-11-20T10:47:11.533Z,31.1
2018-11-20T10:48:02.611Z,30.9
2018-11-20T10:48:51.676Z,30.8
2018-11-20T10:49:43.041Z,30.7
2018-11-20T10:50:32.540Z,30.6
2018-11-20T10:51:23.171Z,30.8
2018-11-20T10:52:11.032Z,32
2018-11-20T10:53:03.226Z,32.5
2018-11-20T10:53:52.175Z,32.9
2018-11-20T10:54:42.487Z,33.3
2018-11-20T10:55:32.180Z,33.8
2018-11-20T10:56:22.041Z,34.1
2018-11-20T10:57:13.508Z,34.4
2018-11-20T10:58:02.581Z,34.7
2018-11-20T10:58:53.330Z,35
2018-11-20T10:59:44.736Z,35.2
2018-11-20T11:00:32.862Z,35.4
2018-11-20T11:01:24.316Z,35.6
2018-11-20T11:02:12.907Z,35.9
2018-11-20T11:03:03.122Z,36
2018-11-20T11:03:52.343Z,36.1
2018-11-20T11:04:43.520Z,35.4
2018-11-20T11:05:32.770Z,34.5
2018-11-20T11:06:26.668Z,33.8
2018-11-20T11:07:20.373Z,33.3
2018-11-20T11:08:04.990Z,32.8
2018-11-20T11:08:54.445Z,32.4
2018-11-20T11:09:42.685Z,32.2
2018-11-20T11:10:33.949Z,31.9
2018-11-20T11:11:25.788Z,31.8
2018-11-20T11:12:17.740Z,31.5
2018-11-20T11:13:05.042Z,31.4
2018-11-20T11:13:55.344Z,31.2
2018-11-20T11:14:46.014Z,31.1
2018-11-20T11:15:34.917Z,30.9
2018-11-20T11:16:24.436Z,30.8
2018-11-20T11:17:15.205Z,30.7
2018-11-20T11:18:04.749Z,30.6
2018-11-20T11:18:53.104Z,30.6
2018-11-20T11:19:45.615Z,31.8
2018-11-20T11:20:37.591Z,32.4
2018-11-20T11:21:24.691Z,32.9
2018-11-20T11:22:14.840Z,33.3
2018-11-20T11:23:07.180Z,33.7
2018-11-20T11:23:55.462Z,34.1
2018-11-20T11:24:44.783Z,34.4
2018-11-20T11:25:35.076Z,34.6
2018-11-20T11:26:24.199Z,34.9
2018-11-20T11:27:14.793Z,35.2
2018-11-20T11:28:05.789Z,35.4
2018-11-20T11:28:58.926Z,35.6
2018-11-20T11:29:44.759Z,35.8
2018-11-20T11:30:34.592Z,35.9
2018-11-20T11:31:25.138Z,36.1
2018-11-20T11:32:14.651Z,35.6
2018-11-20T11:33:04.815Z,34.6
2018-11-20T11:33:54.641Z,33.9
2018-11-20T11:34:45.571Z,33.3
2018-11-20T11:35:34.497Z,32.9
2018-11-20T11:36:24.736Z,32.5
2018-11-20T11:37:14.533Z,32.3
2018-11-20T11:38:06.530Z,32
2018-11-20T11:38:55.574Z,31.8
2018-11-20T11:39:46.617Z,31.6
2018-11-20T11:40:35.734Z,31.4
2018-11-20T11:41:25.815Z,31.3
2018-11-20T11:42:15.578Z,31.1
2018-11-20T11:43:05.993Z,30.9
2018-11-20T11:43:55.973Z,30.8
2018-11-20T11:44:45.900Z,30.8
2018-11-20T11:45:35.614Z,30.6
2018-11-20T11:46:26.034Z,30.3
2018-11-20T11:47:16.312Z,31.4
2018-11-20T11:48:07.422Z,32.3
2018-11-20T11:48:56.490Z,32.8
2018-11-20T11:49:46.210Z,33.1
2018-11-20T11:50:35.034Z,33.5
2018-11-20T11:51:30.744Z,33.9
2018-11-20T11:52:17.449Z,34.3
2018-11-20T11:53:07.355Z,34.6
2018-11-20T11:53:56.434Z,34.8
2018-11-20T11:54:46.638Z,35.1
2018-11-20T11:55:35.829Z,35.3
2018-11-20T11:56:27.211Z,35.5
2018-11-20T11:57:16.672Z,35.7
2018-11-20T11:58:06.112Z,35.9
2018-11-20T11:58:56.859Z,36
2018-11-20T11:59:46.623Z,36.2
2018-11-20T12:00:37.596Z,35.1
2018-11-20T12:01:27.336Z,34.2
2018-11-20T12:03:55.349Z,32.8
2018-11-20T12:04:47.268Z,32.4
2018-11-20T12:05:36.824Z,32.2
2018-11-20T12:06:26.209Z,31.9
2018-11-20T12:07:17.844Z,31.8
2018-11-20T12:08:08.279Z,31.6
2018-11-20T12:08:58.348Z,31.4
2018-11-20T12:09:47.384Z,31.3
2018-11-20T12:10:42.926Z,31.1
2018-11-20T12:11:27.695Z,30.9
2018-11-20T12:12:16.585Z,30.8
2018-11-20T12:13:08.611Z,30.7
2018-11-20T12:13:56.938Z,30.6
2018-11-20T12:14:51.338Z,30.6
2018-11-20T12:15:38.164Z,31.9
2018-11-20T12:16:28.743Z,32.4
2018-11-20T12:17:18.490Z,32.9
2018-11-20T12:18:08.970Z,33.3
2018-11-20T12:19:00.536Z,33.7
2018-11-20T12:19:48.810Z,34.1
2018-11-20T12:20:37.802Z,34.4
2018-11-20T12:21:27.870Z,34.7
2018-11-20T12:22:18.977Z,34.9
2018-11-20T12:23:08.727Z,35.2
2018-11-20T12:23:59.318Z,35.4
2018-11-20T12:24:50.743Z,35.6
2018-11-20T12:25:38.538Z,35.8
2018-11-20T12:26:28.992Z,36
2018-11-20T12:27:17.967Z,36.1
2018-11-20T12:28:08.369Z,35.7
2018-11-20T12:29:04.550Z,34.7
2018-11-20T12:29:49.820Z,33.9
2018-11-20T12:30:38.620Z,33.4
2018-11-20T12:31:34.030Z,32.9
2018-11-20T12:32:18.717Z,32.6
2018-11-20T12:33:09.712Z,32.3
2018-11-20T12:34:03.392Z,32.1
2018-11-20T12:34:49.665Z,31.9
2018-11-20T12:35:47.760Z,31.6
2018-11-20T12:36:33.849Z,31.5
2018-11-20T12:37:19.857Z,31.3
2018-11-20T12:38:09.125Z,31.2
2018-11-20T12:39:03.336Z,31.1
2018-11-20T12:39:50.830Z,30.9
2018-11-20T12:40:40.091Z,30.8
2018-11-20T12:41:32.932Z,30.6
2018-11-20T12:42:22.360Z,30.5
2018-11-20T12:43:09.546Z,30.9
2018-11-20T12:44:06.397Z,32
2018-11-20T12:44:49.529Z,32.6
2018-11-20T12:45:42.527Z,32.9
2018-11-20T12:46:29.069Z,33.4
2018-11-20T12:47:22.024Z,33.8
2018-11-20T12:48:12.224Z,34.1
2018-11-20T12:49:04.751Z,34.4
2018-11-20T12:49:54.219Z,34.8
2018-11-20T12:50:41.683Z,35
2018-11-20T12:51:33.479Z,35.3
2018-11-20T12:52:24.898Z,35.5
2018-11-20T12:53:12.953Z,35.7
2018-11-20T12:54:03.201Z,35.9
2018-11-20T12:54:54.783Z,36
2018-11-20T12:55:43.433Z,36.1
2018-11-20T12:56:30.234Z,35.3
2018-11-20T12:57:22.061Z,34.4
2018-11-20T12:58:11.034Z,33.8
2018-11-20T12:59:02.837Z,33.3
2018-11-20T12:59:52.035Z,32.8
2018-11-20T13:00:43.970Z,32.5
2018-11-20T13:01:31.748Z,32.2
2018-11-20T13:02:21.945Z,31.9
2018-11-20T13:03:10.333Z,31.8
2018-11-20T13:04:02.382Z,31.6
2018-11-20T13:04:53.837Z,31.4
2018-11-20T13:05:43.537Z,31.3
2018-11-20T13:06:32.315Z,31.1
2018-11-20T13:07:23.020Z,31
2018-11-20T13:08:11.989Z,30.9
2018-11-20T13:09:03.462Z,30.8
2018-11-20T13:09:53.455Z,30.7
2018-11-20T13:10:41.612Z,30.4
2018-11-20T13:11:31.634Z,31.4
2018-11-20T13:12:22.428Z,32.3
2018-11-20T13:13:12.729Z,32.7
2018-11-20T13:14:06.258Z,33.1
2018-11-20T13:14:54.581Z,33.6
2018-11-20T13:15:42.795Z,33.9
2018-11-20T13:16:32.032Z,34.3
2018-11-20T13:17:24.556Z,34.5
2018-11-20T13:18:13.897Z,34.9
2018-11-20T13:19:03.941Z,35.1
2018-11-20T13:19:53.186Z,35.3
2018-11-20T13:20:43.264Z,35.5
2018-11-20T13:21:32.744Z,35.7
2018-11-20T13:22:24.417Z,35.9
2018-11-20T13:23:13.946Z,36.1
2018-11-20T13:24:02.279Z,36.2
2018-11-20T13:24:51.909Z,35.2
2018-11-20T13:25:43.393Z,34.3
2018-11-20T13:26:34.293Z,33.6
2018-11-20T13:27:22.486Z,33.2
2018-11-20T13:28:13.604Z,32.8
2018-11-20T13:29:02.761Z,32.4
2018-11-20T13:29:52.389Z,32.2
2018-11-20T13:30:43.368Z,31.9
2018-11-20T13:31:33.611Z,31.8
2018-11-20T13:32:23.399Z,31.6
2018-11-20T13:33:17.803Z,31.4
2018-11-20T13:34:05.589Z,31.2
2018-11-20T13:34:57.638Z,31.1
2018-11-20T13:35:43.934Z,30.9
2018-11-20T13:36:33.881Z,30.8
2018-11-20T13:37:25.333Z,30.6
2018-11-20T13:38:13.762Z,30.6
2018-11-20T13:39:06.887Z,30.3
2018-11-20T13:39:53.090Z,31.3
2018-11-20T13:40:42.748Z,32.1
2018-11-20T13:41:33.653Z,32.6
2018-11-20T13:42:24.058Z,33.1
2018-11-20T13:43:15.954Z,33.4
2018-11-20T13:44:04.787Z,33.8
2018-11-20T13:44:57.220Z,34.2
2018-11-20T13:45:46.435Z,34.5
2018-11-20T13:46:36.385Z,34.8
2018-11-20T13:47:23.523Z,35.1
2018-11-20T13:48:15.362Z,35.3
2018-11-20T13:49:04.423Z,35.5
2018-11-20T13:49:55.802Z,35.7
2018-11-20T13:50:44.842Z,35.8
2018-11-20T14:07:32.518Z,30.4
2018-11-20T14:08:22.298Z,31.1
2018-11-20T14:09:13.646Z,32
2018-11-20T14:10:03.491Z,32.6
2018-11-20T14:10:53.382Z,33
2018-11-20T14:11:57.823Z,33.4
2018-11-20T14:12:33.556Z,33.8
2018-11-20T14:13:24.406Z,34.1
2018-11-20T14:14:12.916Z,34.4
2018-11-20T14:15:03.506Z,34.7
2018-11-20T14:16:07.129Z,34.9
2018-11-20T14:16:43.320Z,35.3
2018-11-20T14:17:33.353Z,35.4
2018-11-20T14:18:24.030Z,35.6
2018-11-20T14:19:28.842Z,35.8
2018-11-20T14:20:04.257Z,36
2018-11-20T14:20:53.904Z,36.1
2018-11-20T14:21:43.870Z,35.9
2018-11-20T14:22:33.922Z,34.8
2018-11-20T14:23:40.867Z,34
2018-11-20T14:24:13.910Z,33.3
2018-11-20T14:25:03.929Z,33
2018-11-20T14:25:54.212Z,32.6
2018-11-20T14:26:58.907Z,32.3
2018-11-20T14:27:34.967Z,31.9
2018-11-20T14:28:39.607Z,31.8
2018-11-20T14:29:14.573Z,31.6
2018-11-20T14:30:19.244Z,31.4
2018-11-20T14:30:53.997Z,31.2
2018-11-20T14:31:45.130Z,31.1
2018-11-20T14:32:34.193Z,30.9
2018-11-20T14:33:24.087Z,30.8
2018-11-20T14:34:14.162Z,30.7
2018-11-20T14:35:05.080Z,30.6
2018-11-20T14:35:55.119Z,30.5
2018-11-20T14:37:00.629Z,30.6
2018-11-20T14:37:51.287Z,32
2018-11-20T14:38:38.367Z,32.6
2018-11-20T14:39:15.231Z,33
2018-11-20T14:40:05.906Z,33.3
2018-11-20T14:41:27.633Z,33.8
2018-11-20T14:41:44.119Z,34.3
2018-11-20T14:42:34.306Z,34.4
2018-11-20T14:43:25.491Z,34.7
2018-11-20T14:44:14.959Z,35
2018-11-20T14:45:06.078Z,35.3
2018-11-20T14:45:55.469Z,35.4
2018-11-20T14:46:46.108Z,35.7
2018-11-20T14:47:35.216Z,35.8
2018-11-20T14:48:40.085Z,36
2018-11-20T14:49:15.556Z,36.2
2018-11-20T14:50:05.094Z,35.9
2018-11-20T14:51:44.893Z,33.6
2018-11-20T14:52:37.283Z,33.4
2018-11-20T14:53:25.569Z,32.9
2018-11-20T14:54:17.683Z,32.6
2018-11-20T14:55:05.963Z,32.3
2018-11-20T14:55:56.243Z,32
2018-11-20T14:56:46.687Z,31.8
2018-11-20T14:57:51.430Z,31.6
2018-11-20T14:58:26.018Z,31.3
2018-11-20T14:59:16.511Z,31.3
2018-11-20T15:00:06.721Z,31.1
2018-11-20T15:00:56.010Z,30.9
2018-11-20T15:01:46.383Z,30.8
2018-11-20T15:02:50.900Z,30.7
2018-11-20T15:03:26.720Z,30.5
2018-11-20T15:04:17.167Z,30.4
2018-11-20T15:05:06.582Z,30.8
2018-11-20T15:05:56.600Z,31.9
2018-11-20T15:06:48.225Z,32.5
2018-11-20T15:07:36.255Z,32.9
2018-11-20T15:08:43.379Z,33.4
2018-11-20T15:09:16.841Z,33.8
2018-11-20T15:10:07.327Z,34.1
2018-11-20T15:10:56.962Z,34.4
2018-11-20T15:11:47.140Z,34.7
2018-11-20T15:12:37.257Z,35
2018-11-20T15:13:26.916Z,35.2
2018-11-20T15:14:17.727Z,35.4
2018-11-20T15:15:07.472Z,35.6
2018-11-20T15:15:56.362Z,35.8
2018-11-20T15:17:02.028Z,35.9
2018-11-20T15:17:37.791Z,36.1
2018-11-20T15:18:27.466Z,36
2018-11-20T15:19:16.587Z,34.9
2018-11-20T15:21:11.189Z,33.3
2018-11-20T15:21:47.499Z,32.9
2018-11-20T15:22:36.941Z,32.5
2018-11-20T15:23:27.361Z,32.3
2018-11-20T15:24:16.646Z,32.1
2018-11-20T15:25:09.174Z,31.8
2018-11-20T15:26:05.074Z,31.6
2018-11-20T15:26:47.373Z,31.4
2018-11-20T15:27:38.741Z,31.3
2018-11-20T15:28:28.420Z,31.1
2018-11-20T15:29:18.031Z,31
2018-11-20T15:30:08.278Z,30.9
2018-11-20T15:31:13.064Z,30.8
2018-11-20T15:31:48.878Z,30.6
2018-11-20T15:32:54.538Z,30.6
2018-11-20T15:33:29.811Z,30.4
2018-11-20T15:34:18.870Z,30.3
2018-11-20T15:35:09.482Z,30.2
2018-11-20T15:36:13.292Z,30.1
2018-11-20T15:36:50.161Z,29.4
2018-11-20T15:37:39.792Z,29.9
2018-11-20T15:38:42.363Z,31.1
2018-11-20T15:39:19.116Z,31.9
2018-11-20T15:40:10.196Z,32.3
2018-11-20T15:40:59.405Z,32.8
2018-11-20T15:41:51.058Z,33.2
2018-11-20T15:42:39.685Z,33.6
2018-11-20T15:43:28.275Z,33.9
2018-11-20T15:44:20.092Z,34.3
2018-11-20T15:45:09.373Z,34.6
2018-11-20T15:46:13.721Z,34.8
2018-11-20T15:47:05.142Z,35.1
2018-11-20T15:47:39.732Z,35.3
2018-11-20T15:48:30.559Z,35.4
2018-11-20T15:49:35.348Z,35.6
2018-11-20T15:50:09.637Z,35.9
2018-11-20T15:50:59.102Z,35.9
2018-11-20T15:51:48.905Z,36.1
2018-11-20T15:52:40.262Z,36
2018-11-20T15:53:30.118Z,34.8
2018-11-20T15:54:19.711Z,34
2018-11-20T15:55:09.339Z,33.4
2018-11-20T15:55:59.002Z,32.9
2018-11-20T15:56:50.457Z,32.6
2018-11-20T15:57:39.825Z,32.3
2018-11-20T15:58:30.886Z,32
2018-11-20T15:59:19.920Z,31.8
2018-11-20T16:00:25.088Z,31.6
2018-11-20T16:01:00.699Z,31.4
2018-11-20T16:01:50.531Z,31.3
2018-11-20T16:02:40.996Z,31.1
2018-11-20T16:03:32.434Z,31
2018-11-20T16:04:20.713Z,30.9
2018-11-20T16:05:10.166Z,30.8
2018-11-20T16:06:15.179Z,30.7
2018-11-20T16:06:49.447Z,30.6
2018-11-20T16:07:41.301Z,30.4
2018-11-20T16:08:31.573Z,30.3
2018-11-20T16:09:21.936Z,30.2
2018-11-20T16:10:10.661Z,30.1
2018-11-20T16:11:00.848Z,29.6
2018-11-20T16:11:51.983Z,30.1
2018-11-20T16:12:58.538Z,31.3
2018-11-20T16:13:30.406Z,32.1
2018-11-20T16:14:21.263Z,32.4
2018-11-20T16:15:25.588Z,32.9
2018-11-20T16:16:02.589Z,33.4
2018-11-20T16:16:51.675Z,33.7
2018-11-20T16:17:40.870Z,34
2018-11-20T16:18:30.816Z,34.3
2018-11-20T16:19:21.707Z,34.6
2018-11-20T16:20:25.803Z,34.8
2018-11-20T16:21:17.232Z,35.1
2018-11-20T16:21:52.275Z,35.3
2018-11-20T16:22:42.862Z,35.4
2018-11-20T16:23:32.240Z,35.6
2018-11-20T16:24:23.008Z,35.8